AirNav   MODERNIZE NOT PRIVATIZE ATC
 
 1608 users online  

3W5 Mears Field Airport
Concrete, Washington, USA


FAA INFORMATION EFFECTIVE 20 JULY 2017

Location

FAA Identifier: 3W5
Lat/Long: 48-31-47.4180N / 121-45-29.6960W
48-31.790300N / 121-45.494933W
48.5298383 / -121.7582489
(estimated)
Elevation: 267 ft. / 81 m (estimated)
Variation: 21E (1985)
From city: 1 mile S of CONCRETE, WA
Time zone: UTC -7 (UTC -8 during Standard Time)
Zip code: 98237

Airport Operations

Airport use: Open to the public
Activation date: 07/1938
Control tower: no
ARTCC: SEATTLE CENTER
FSS: SEATTLE FLIGHT SERVICE STATION
NOTAMs facility: SEA (NOTAM-D service available)
Attendance: UNATNDD
Wind indicator: yes
Segmented circle: yes

Airport Communications

CTAF: 122.9

Nearby radio navigation aids

NDB name  Hdg/Dist  Freq  Var  ID
SKAGIT/BAY VIEW066/26.524016EBVS -... ...- ...

Airport Services

Fuel available: 100LL
Parking: tiedowns
Airframe service: NONE
Powerplant service: NONE
Bottled oxygen: NONE
Bulk oxygen: NONE

Runway Information

Runway 7/25

Dimensions: 2609 x 60 ft. / 795 x 18 m
Surface: asphalt, in good condition
Weight bearing capacity: 
Single wheel: 12.0
Runway edge markings: RY 07/25 CNTRLN FADED, ARPT NAME PAINTED ON RY AT MIDFIELD.
RUNWAY 7  RUNWAY 25
Latitude: 48-31.792783N48-31.787817N
Longitude: 121-45.817133W121-45.171067W
Gradient: 0.1%0.1%
Traffic pattern: rightleft
Markings: basic, in fair conditionbasic, in fair condition
Obstructions: 41 ft. trees, 900 ft. from runway, 17:1 slope to clear44 ft. trees, 720 ft. from runway, 11:1 slope to clear
INFREQUENTLY USED ROAD AT 0'.

Helipad H1

Dimensions: 40 x 40 ft. / 12 x 12 m
Surface: concrete, in good condition
Operational restrictions: HELIPAD FOR EMERGENCY USE ONLY.
Traffic pattern: leftleft

Airport Ownership and Management from official FAA records

Ownership: Publicly-owned
Owner: CITY OF CONCRETE
PO BOX 39
CONCRETE, WA 98237
Phone 360-853-8401
Manager: CITY OF CONCRETE
PO BOX 39
CONCRETE, WA 98237
Phone 360-853-7114
JACK MEARS: AIRPORT REPRESENTATIVE FROM TOWN COUNCIL.

Airport Operational Statistics

Aircraft based on the field: 46
Single engine airplanes: 44
Multi engine airplanes: 2
    
Aircraft operations: avg 97/week *
60% transient general aviation
40% local general aviation
<1% military
* for 12-month period ending 31 December 2014

Additional Remarks

ALL PATTERNS SOUTH OF ARPT.
ELK AND DEER FREQUENT BOTH RWY ENDS AND MID-FIELD.

Instrument Procedures

There are no published instrument procedures at 3W5.

Some nearby airports with instrument procedures:

KBVS - Skagit Regional Airport (27 nm W)
KAWO - Arlington Municipal Airport (27 nm SW)
KBLI - Bellingham International Airport (35 nm NW)
KNUW - Whidbey Island Naval Air Station/Ault Field (37 nm W)
S43 - Harvey Field Airport (40 nm S)
 
Loc | Ops | Rwys | IFR | FBO | Links
Com | Nav | Svcs | Stats | Notes


 
Area around 3W5 (Mears Field Airport)
 
Road maps at: MapQuest Bing Google
 
Aerial photo
WARNING: Photo may not be current or correct
Aerial photo of 3W5 (Mears Field Airport)
Photo by John Scurlock
Photo taken 19-Oct-2014
looking east.

Do you have a better or more recent aerial photo of Mears Field Airport that you would like to share? If so, please send us your photo.

 
Sectional chart

 
Airport distance calculator
Flying to Mears Field Airport? Find the distance to fly.

From to 3W5

Sunrise and sunset
Times for 24-Jul-2017
 Local
(UTC-7)
 Zulu
(UTC)
Morning civil twilight04:5411:54
Sunrise05:3212:32
Sunset20:5503:55
Evening civil twilight21:3304:33

Current date and time
Zulu (UTC)  24-Jul-2017 15:54:39
Local (UTC-7)  24-Jul-2017 08:54:39
 
METAR
KBVS 
26nm W 
241535Z AUTO 00000KT 9SM CLR 17/13 A3006 RMK A01
KAWO 
27nm SW 
241456Z AUTO 00000KT 10SM CLR 14/11 A3007 RMK AO2 SLP184 T01390111 51006
KBLI 
35nm NW 
241453Z 00000KT 10SM CLR 16/13 A3005 RMK AO2 SLP183 T01610133 53008
74S 
36nm W 
SuperAWOS
241527Z AUTO 31004KT 10SM 17/14 A3007
KNUW 
37nm W 
241456Z 26003KT 10SM FEW020 16/11 A3010 RMK AO2 SLP190 T01560106 51006 $
CYXX 
38nm NW 
241500Z 00000KT 30SM SKC 16/13 A3005 RMK SLP178 DENSITY ALT 200FT
KPAE 
42nm SW 
241453Z 32005KT 10SM CLR 16/12 A3007 RMK AO2 SLP179 T01610117 51006
CWZA 
43nm N 
241500Z AUTO 04007KT 18/12 RMK AO1 SLP173 T01810118 52007
KORS 
46nm W 
241535Z AUTO 33005KT 10SM CLR 17/14 A3007 RMK AO2
CWWK 
49nm NW 
241500Z AUTO 16001KT 16/13 RMK AO1 SLP179 T01600133 51006
TAF
KBLI 
35nm NW 
241123Z 2412/2512 00000KT P6SM SKC FM242000 28006KT P6SM SKC FM250300 20004KT P6SM SKC
KNUW 
37nm W 
2407/2507 VRB06KT 9999 FEW004 SCT020 QNH3003INS TEMPO 2411/2417 6000 BR SCT004 BKN015 FM241800 27008KT 9999 SCT025 QNH2996INS T11/2412Z T21/2423Z FS30058
CYXX 
38nm NW 
241138Z 2412/2512 VRB03KT P6SM SKC BECMG 2418/2420 22010KT FM250300 20005KT P6SM SCT180 RMK NXT FCST BY 241800Z
KPAE 
42nm SW 
241123Z 2412/2512 33005KT P6SM SKC TEMPO 2413/2416 SCT002 FM241800 33007KT P6SM SKC FM250600 01004KT P6SM SKC
NOTAMs
Click for the latest NOTAMs
NOTAMs are issued by the DoD/FAA and will open in a separate window not controlled by AirNav.

 

 
 

Would you like to see your business listed on this page?

 If your business provides an interesting product or service to pilots, flight crews, aircraft, or users of the Mears Field Airport, you should consider listing it here.  To start the listing process, click on the button below
 
Add a business
 

Other Pages about Mears Field Airport

Update a link
 
Copyright © AirNav, LLC. All rights reserved. Privacy Policy  Contact